Rincon, GA (31326)

10:44 AM EST on December 18, 2014 (GMT -0500)
Oxford Subdivision | Change Station
CLOSE
Current Station
Personal Weather Station
Location: Rincon, GA
Elevation: 66 ft
Nearby Weather Stations

Elev 66 ft 32.29 °N, 81.23 °W | Updated 10 minutes ago

Mostly Cloudy
Mostly Cloudy
51.3 °F
Feels Like 51.3 °F
N
0.0
Wind Variable Wind from South

Today
High -- | Low -- °F
--% Chance of Precip.
Yesterday
High -- | Low -- °F
Precip. -- in
7:20 AM 5:22 PM
Waning Crescent, 14% visible
Pressure 30.20 in
Visibility 10.0 miles
Clouds Mostly Cloudy 15000 ft
Dew Point 45 °F
Humidity 79%
Rainfall 0.00 in
Snow Depth Not available.
UV 1 out of 12
Pollen 2.20 out of 12
Air Quality Not available.
Flu Activity Not available.
METAR KSAV 181453Z 30006KT 10SM BKN150 08/04 A3020 RMK AO2 SLP225 T00830039 53014

More Conditions Fewer Conditions

Pressure 30.20 in
Visibility 10.0 miles
Clouds Mostly Cloudy 15000 ft
Dew Point 45 °F
Humidity 79%
Rainfall 0.00 in
Snow Depth Not available.
UV 1 out of 12
Pollen 2.20 out of 12
Air Quality Not available.
Flu Activity Not available.
METAR KSAV 181453Z 30006KT 10SM BKN150 08/04 A3020 RMK AO2 SLP225 T00830039 53014

More Conditions Fewer Conditions

10-Day Weather Forecast

Almanac

Astronomy

Dec. 18, 2014 Rise Set
Actual Time
Civil Twilight
Nautical Twilight
Astronomical Twilight
Moon
Length of Visible Light
Length of Day
Tomorrow will be .
, % of the Moon is Illuminated

Today's Extremes

State Highs State Lows

Community

WunderPhotos

Upload Photos

1,778,947 photos uploaded!

WunderBlogs® & News

Nearby

Air Quality

  Air Quality AQ Index Pollutant
Not available.

Snow Depth

Station Depth Elevation

Earthquake Activity

City Distance Mag. Time & Date
Minimum magnitude displayed is 2.5.

Coastal Water Temperatures

Place Temperature

Nearby Weather Stations